Time;durP1;ratioP1;P1;durP2;ratioP2;P2;SDS_P1;SDS_P2;PMS_P1;PMS_P2;Temp;Humidity;BMP_temperature;BMP_pressure;BME280_temperature;BME280_humidity;BME280_pressure;Samples;Min_cycle;Max_cycle;Signal;HPM_P1;HPM_P2
2023/10/25 00:01:27;;;;;;;0.70;0.70;;;2.50;99.90;;;;;;5070014;28;20200;-72
2023/10/25 00:03:53;;;;;;;0.60;0.60;;;2.50;99.90;;;;;;5070000;28;20189;-71
2023/10/25 00:06:19;;;;;;;0.70;0.70;;;2.50;99.90;;;;;;5051870;28;20201;-71
2023/10/25 00:08:44;;;;;;;0.80;0.80;;;2.50;99.90;;;;;;5069929;28;20195;-72
2023/10/25 00:11:10;;;;;;;1.67;1.58;;;2.50;99.90;;;;;;5077120;28;20222;-71
2023/10/25 00:13:36;;;;;;;0.70;0.70;;;2.50;99.90;;;;;;5089980;28;20207;-72
2023/10/25 00:16:03;;;;;;;0.70;0.70;;;2.50;99.90;;;;;;5089784;28;20207;-71
2023/10/25 00:18:30;;;;;;;0.70;0.70;;;2.50;99.90;;;;;;5089837;28;20282;-72
2023/10/25 00:20:56;;;;;;;0.70;0.70;;;2.50;99.90;;;;;;5090145;28;20196;-72
2023/10/25 00:23:21;;;;;;;0.60;0.60;;;2.50;99.90;;;;;;5089776;28;20234;-72
2023/10/25 00:25:48;;;;;;;0.65;0.65;;;2.50;99.90;;;;;;5090073;28;20675;-70
2023/10/25 00:28:14;;;;;;;0.50;0.50;;;2.50;99.90;;;;;;5089788;28;20196;-71
2023/10/25 00:30:40;;;;;;;0.63;0.63;;;2.50;99.90;;;;;;5071483;28;20203;-70
2023/10/25 00:33:05;;;;;;;0.70;0.70;;;2.50;99.90;;;;;;5089716;28;20207;-71
2023/10/25 00:35:31;;;;;;;0.70;0.70;;;2.50;99.90;;;;;;5089553;28;20236;-71
2023/10/25 00:37:57;;;;;;;0.63;0.63;;;2.40;99.90;;;;;;5089501;28;20193;-69
2023/10/25 00:40:23;;;;;;;0.63;0.63;;;2.40;99.90;;;;;;5089471;28;20666;-71
2023/10/25 00:42:49;;;;;;;0.60;0.60;;;2.40;99.90;;;;;;5071316;28;20195;-70
2023/10/25 00:45:15;;;;;;;0.60;0.60;;;2.40;99.90;;;;;;5089821;28;20200;-71
2023/10/25 00:47:41;;;;;;;0.50;0.50;;;2.40;99.90;;;;;;5089697;28;20196;-71
2023/10/25 00:50:09;;;;;;;0.52;0.52;;;2.30;99.90;;;;;;5089510;28;20212;-71
2023/10/25 00:52:37;;;;;;;0.50;0.50;;;2.30;99.90;;;;;;5089502;28;20823;-71
2023/10/25 00:55:04;;;;;;;0.70;0.70;;;2.30;99.90;;;;;;5088950;28;20235;-71
2023/10/25 00:57:31;;;;;;;0.75;0.75;;;2.30;99.90;;;;;;5089266;28;20204;-70
2023/10/25 00:59:59;;;;;;;0.70;0.70;;;2.20;99.90;;;;;;5089240;28;20681;-71
2023/10/25 01:02:25;;;;;;;0.93;0.93;;;2.20;99.90;;;;;;5070624;28;20203;-70
2023/10/25 01:04:51;;;;;;;0.60;0.60;;;2.10;99.90;;;;;;5088614;28;20208;-70
2023/10/25 01:07:17;;;;;;;0.70;0.70;;;2.10;99.90;;;;;;5088693;28;20203;-71
2023/10/25 01:09:42;;;;;;;0.70;0.70;;;2.10;99.90;;;;;;5088673;28;20253;-70
2023/10/25 01:12:09;;;;;;;0.60;0.60;;;2.10;99.90;;;;;;5089107;28;20208;-71
2023/10/25 01:14:34;;;;;;;0.60;0.60;;;2.10;99.90;;;;;;5088646;28;20223;-71
2023/10/25 01:17:00;;;;;;;1.08;1.05;;;2.00;99.90;;;;;;5088697;28;20238;-71
2023/10/25 01:19:26;;;;;;;0.50;0.50;;;2.00;99.90;;;;;;5088469;28;20293;-70
2023/10/25 01:21:53;;;;;;;0.57;0.57;;;1.90;99.90;;;;;;5070475;28;20628;-71
2023/10/25 01:24:20;;;;;;;0.60;0.60;;;1.90;99.90;;;;;;5088786;28;20677;-70
2023/10/25 01:26:46;;;;;;;0.77;0.77;;;1.90;99.90;;;;;;5092536;28;20627;-70
2023/10/25 01:29:11;;;;;;;0.68;0.68;;;1.90;99.90;;;;;;5074537;28;20206;-71
2023/10/25 01:31:37;;;;;;;0.63;0.63;;;1.80;99.90;;;;;;5092913;28;20199;-71
2023/10/25 01:34:03;;;;;;;0.60;0.60;;;1.70;99.90;;;;;;5093243;28;20200;-71
2023/10/25 01:36:28;;;;;;;0.70;0.70;;;1.70;99.90;;;;;;5092923;28;20204;-71
2023/10/25 01:38:54;;;;;;;0.50;0.50;;;1.70;99.90;;;;;;5093181;28;20720;-72
2023/10/25 01:41:19;;;;;;;0.80;0.80;;;1.70;99.90;;;;;;5092836;28;20192;-72
2023/10/25 01:43:45;;;;;;;0.60;0.60;;;1.70;99.90;;;;;;5092914;28;20284;-72
2023/10/25 01:46:11;;;;;;;0.47;0.47;;;1.60;99.90;;;;;;5092656;28;20235;-71
2023/10/25 01:48:37;;;;;;;0.80;0.80;;;1.60;99.90;;;;;;5074233;28;20254;-72
2023/10/25 01:51:08;;;;;;;0.60;0.60;;;1.60;99.90;;;;;;5074264;28;20204;-72
2023/10/25 01:53:34;;;;;;;0.63;0.63;;;1.70;99.90;;;;;;5092299;28;20202;-67
2023/10/25 01:56:00;;;;;;;0.85;0.85;;;1.70;99.90;;;;;;5092274;28;20330;-71
2023/10/25 01:58:26;;;;;;;0.60;0.60;;;1.70;99.90;;;;;;5092600;28;20284;-70
2023/10/25 02:00:51;;;;;;;0.60;0.60;;;1.70;99.90;;;;;;5092802;28;20706;-70
2023/10/25 02:03:17;;;;;;;0.60;0.60;;;1.70;99.90;;;;;;5078017;28;20203;-71
2023/10/25 02:05:43;;;;;;;0.80;0.80;;;1.70;99.90;;;;;;5113031;28;20710;-70
2023/10/25 02:08:08;;;;;;;1.05;1.00;;;1.70;99.90;;;;;;5113020;28;20213;-70
2023/10/25 02:10:34;;;;;;;1.65;1.15;;;1.70;99.90;;;;;;5112954;28;20559;-70
2023/10/25 02:13:00;;;;;;;0.70;0.70;;;1.60;99.90;;;;;;5112723;28;20187;-70
2023/10/25 02:15:27;;;;;;;0.65;0.65;;;1.60;99.90;;;;;;5100997;28;20637;-70
2023/10/25 02:17:52;;;;;;;0.88;0.88;;;1.60;99.90;;;;;;5092653;28;20544;-70
2023/10/25 02:20:18;;;;;;;0.70;0.70;;;1.60;99.90;;;;;;5092504;28;20188;-71
2023/10/25 02:22:44;;;;;;;0.50;0.50;;;1.60;99.90;;;;;;5092264;28;20655;-70
2023/10/25 02:25:09;;;;;;;0.93;0.88;;;1.60;99.90;;;;;;5092014;28;20196;-70
2023/10/25 02:27:35;;;;;;;0.80;0.80;;;1.60;99.90;;;;;;5073797;28;20383;-70
2023/10/25 02:30:01;;;;;;;0.70;0.70;;;1.60;99.90;;;;;;5092070;28;20186;-71
2023/10/25 02:32:26;;;;;;;0.57;0.57;;;1.60;99.90;;;;;;5091808;28;20247;-69
2023/10/25 02:34:52;;;;;;;0.50;0.50;;;1.60;99.90;;;;;;5091985;28;20203;-70
2023/10/25 02:37:18;;;;;;;0.80;0.80;;;1.60;99.90;;;;;;5090648;28;20206;-70
2023/10/25 02:39:43;;;;;;;0.70;0.70;;;1.60;99.90;;;;;;5091727;28;20188;-70
2023/10/25 02:42:09;;;;;;;0.50;0.50;;;1.60;99.90;;;;;;5092044;28;20196;-71
2023/10/25 02:44:35;;;;;;;0.60;0.60;;;1.60;99.90;;;;;;5090781;28;20200;-70
2023/10/25 02:47:00;;;;;;;0.95;0.95;;;1.60;99.90;;;;;;5091430;28;20238;-71
2023/10/25 02:49:26;;;;;;;0.60;0.60;;;1.60;99.90;;;;;;5091666;28;20223;-70
2023/10/25 02:51:52;;;;;;;0.70;0.70;;;1.60;99.90;;;;;;5091460;28;20195;-71
2023/10/25 02:54:18;;;;;;;0.70;0.70;;;1.60;99.90;;;;;;5091661;28;20633;-70
2023/10/25 02:56:43;;;;;;;0.60;0.60;;;1.60;99.90;;;;;;5091423;28;20242;-71
2023/10/25 02:59:09;;;;;;;0.55;0.55;;;1.60;99.90;;;;;;5073048;28;20223;-71
2023/10/25 03:01:35;;;;;;;0.60;0.60;;;1.60;99.90;;;;;;5087231;28;20197;-70
2023/10/25 03:04:01;;;;;;;0.60;0.60;;;1.60;99.90;;;;;;5084392;28;20196;-71
2023/10/25 03:06:26;;;;;;;1.40;1.17;;;1.60;99.90;;;;;;5072859;28;20325;-69
2023/10/25 03:08:52;;;;;;;0.60;0.60;;;1.50;99.90;;;;;;5091247;28;20296;-71
2023/10/25 03:11:18;;;;;;;0.60;0.60;;;1.50;99.90;;;;;;5091081;28;20690;-70
2023/10/25 03:13:43;;;;;;;0.70;0.70;;;1.50;99.90;;;;;;5091136;28;20228;-71
2023/10/25 03:16:09;;;;;;;0.70;0.70;;;1.50;99.90;;;;;;5091267;28;20208;-70
2023/10/25 03:18:35;;;;;;;0.73;0.73;;;1.50;99.90;;;;;;5091377;28;20531;-70
2023/10/25 03:21:02;;;;;;;0.60;0.60;;;1.50;99.90;;;;;;5072503;28;20207;-70
2023/10/25 03:23:30;;;;;;;0.70;0.70;;;1.50;99.90;;;;;;5090832;28;20191;-72
2023/10/25 03:25:57;;;;;;;0.70;0.70;;;1.60;99.90;;;;;;5090829;28;20204;-72
2023/10/25 03:28:23;;;;;;;0.75;0.75;;;1.60;99.90;;;;;;5090870;28;20561;-71
2023/10/25 03:30:48;;;;;;;0.60;0.60;;;1.60;99.90;;;;;;5072511;28;20193;-70
2023/10/25 03:33:14;;;;;;;7.72;1.75;;;1.60;99.90;;;;;;5090775;28;20196;-71
2023/10/25 03:35:40;;;;;;;0.75;0.75;;;1.60;99.90;;;;;;5090628;28;20199;-70
2023/10/25 03:38:05;;;;;;;0.60;0.60;;;1.60;99.90;;;;;;5090917;28;20254;-71
2023/10/25 03:40:31;;;;;;;0.70;0.70;;;1.60;99.90;;;;;;5090616;28;20203;-71
2023/10/25 03:42:56;;;;;;;0.68;0.68;;;1.60;99.90;;;;;;5081845;28;20240;-71
2023/10/25 03:45:22;;;;;;;0.60;0.60;;;1.70;99.90;;;;;;5052372;28;20208;-70
2023/10/25 03:47:48;;;;;;;0.60;0.60;;;1.70;99.90;;;;;;5051931;28;20201;-70
2023/10/25 03:50:14;;;;;;;0.50;0.50;;;1.60;99.90;;;;;;5071829;28;20222;-71
2023/10/25 03:52:39;;;;;;;0.73;0.73;;;1.70;99.90;;;;;;5090243;28;20230;-71
2023/10/25 03:55:07;;;;;;;0.88;0.88;;;1.70;99.90;;;;;;5090474;28;20255;-71
2023/10/25 03:57:32;;;;;;;0.70;0.70;;;1.70;99.90;;;;;;5071909;28;20314;-71
2023/10/25 03:59:58;;;;;;;0.60;0.60;;;1.70;99.90;;;;;;5110834;28;20286;-71
2023/10/25 04:02:24;;;;;;;1.48;1.38;;;1.70;99.90;;;;;;5096659;28;20207;-70
2023/10/25 04:04:49;;;;;;;0.60;0.60;;;1.70;99.90;;;;;;5090286;28;20204;-71
2023/10/25 04:07:15;;;;;;;0.60;0.60;;;1.70;99.90;;;;;;5084401;28;20283;-71
2023/10/25 04:09:41;;;;;;;2.50;1.35;;;1.70;99.90;;;;;;5051777;28;20212;-70
2023/10/25 04:12:11;;;;;;;0.50;0.50;;;1.70;99.90;;;;;;5069903;28;20708;-70
2023/10/25 04:14:41;;;;;;;0.60;0.60;;;1.70;99.90;;;;;;5069720;28;20558;-71
2023/10/25 04:17:08;;;;;;;0.60;0.60;;;1.70;99.90;;;;;;5069701;28;20257;-71
2023/10/25 04:19:34;;;;;;;1.05;0.80;;;1.70;99.90;;;;;;5069649;28;20224;-70
2023/10/25 04:22:03;;;;;;;0.70;0.70;;;1.70;99.90;;;;;;5069919;28;20278;-71
2023/10/25 04:24:29;;;;;;;0.80;0.80;;;1.70;99.90;;;;;;5051500;28;20246;-71
2023/10/25 04:26:55;;;;;;;0.52;0.52;;;1.60;99.90;;;;;;5051664;28;20295;-71
2023/10/25 04:29:20;;;;;;;0.57;0.57;;;1.60;99.90;;;;;;5051491;28;20213;-71
2023/10/25 04:31:46;;;;;;;0.70;0.70;;;1.60;99.90;;;;;;5069567;28;20648;-71
2023/10/25 04:34:11;;;;;;;0.70;0.70;;;1.60;99.90;;;;;;5069718;28;20333;-71
2023/10/25 04:36:38;;;;;;;0.70;0.70;;;1.60;99.90;;;;;;5051073;28;20225;-71
2023/10/25 04:39:04;;;;;;;0.63;0.63;;;1.60;99.90;;;;;;5058790;28;20196;-71
2023/10/25 04:41:31;;;;;;;0.60;0.60;;;1.60;99.90;;;;;;5088707;28;20680;-71
2023/10/25 04:43:57;;;;;;;0.50;0.50;;;1.60;99.90;;;;;;5089610;28;20279;-70
2023/10/25 04:46:23;;;;;;;0.63;0.63;;;1.60;99.90;;;;;;5070284;28;20281;-71
2023/10/25 04:48:48;;;;;;;0.77;0.77;;;1.60;99.90;;;;;;5051289;28;20676;-71
2023/10/25 04:51:14;;;;;;;0.60;0.60;;;1.60;99.90;;;;;;5069319;28;20196;-71
2023/10/25 04:53:40;;;;;;;0.70;0.70;;;1.60;99.90;;;;;;5106445;28;20257;-72
2023/10/25 04:56:07;;;;;;;0.70;0.70;;;1.60;99.90;;;;;;5109679;28;20690;-71
2023/10/25 04:58:33;;;;;;;0.80;0.80;;;1.60;99.90;;;;;;5109757;28;20202;-71
2023/10/25 05:00:58;;;;;;;0.70;0.70;;;1.60;99.90;;;;;;5090585;28;20316;-71
2023/10/25 05:03:24;;;;;;;0.52;0.52;;;1.60;99.90;;;;;;5085773;28;20196;-71
2023/10/25 05:05:50;;;;;;;0.50;0.50;;;1.60;99.90;;;;;;5089468;28;20196;-72
2023/10/25 05:08:15;;;;;;;0.80;0.80;;;1.60;99.90;;;;;;5089348;28;20235;-72
2023/10/25 05:10:41;;;;;;;0.65;0.65;;;1.60;99.90;;;;;;5089495;28;20200;-73
2023/10/25 05:13:08;;;;;;;0.55;0.55;;;1.60;99.90;;;;;;5089218;28;20196;-72
2023/10/25 05:15:37;;;;;;;0.77;0.77;;;1.60;99.90;;;;;;5088727;28;20204;-73
2023/10/25 05:18:03;;;;;;;0.60;0.60;;;1.60;99.90;;;;;;5089156;28;20246;-72
2023/10/25 05:20:30;;;;;;;0.70;0.70;;;1.60;99.90;;;;;;5088873;28;20192;-72
2023/10/25 05:22:58;;;;;;;0.60;0.60;;;1.60;99.90;;;;;;5089000;28;20200;-72
2023/10/25 05:25:24;;;;;;;0.73;0.73;;;1.60;99.90;;;;;;5088931;28;20788;-71
2023/10/25 05:27:50;;;;;;;0.60;0.60;;;1.60;99.90;;;;;;5088858;28;20203;-73
2023/10/25 05:30:17;;;;;;;0.60;0.60;;;1.60;99.90;;;;;;5088874;28;20192;-72
2023/10/25 05:32:48;;;;;;;0.70;0.70;;;1.70;99.90;;;;;;5088778;28;20196;-73
2023/10/25 05:35:17;;;;;;;0.70;0.70;;;1.70;99.90;;;;;;5095929;28;20693;-73
2023/10/25 05:37:43;;;;;;;0.68;0.68;;;1.70;99.90;;;;;;5109104;28;20281;-72
2023/10/25 05:40:08;;;;;;;0.70;0.70;;;1.60;99.90;;;;;;5090986;28;20195;-72
2023/10/25 05:42:49;;;;;;;0.60;0.60;;;1.60;99.90;;;;;;5109053;28;20208;-73
2023/10/25 05:45:15;;;;;;;0.60;0.60;;;1.60;99.90;;;;;;5091177;28;20222;-70
2023/10/25 05:47:42;;;;;;;0.60;0.60;;;1.60;99.90;;;;;;5109103;28;20195;-71
2023/10/25 05:50:10;;;;;;;0.50;0.50;;;1.50;99.90;;;;;;5109231;28;20661;-71
2023/10/25 05:52:36;;;;;;;0.60;0.60;;;1.50;99.90;;;;;;5109154;28;20188;-70
2023/10/25 05:55:05;;;;;;;0.60;0.60;;;1.50;99.90;;;;;;5109161;28;20251;-71
2023/10/25 05:57:31;;;;;;;0.68;0.68;;;1.40;99.90;;;;;;5108733;28;20967;-70
2023/10/25 05:59:56;;;;;;;0.55;0.55;;;1.40;99.90;;;;;;5101635;28;20271;-70
2023/10/25 06:02:27;;;;;;;0.70;0.70;;;1.40;99.90;;;;;;5088519;28;20264;-70
2023/10/25 06:04:55;;;;;;;0.60;0.60;;;1.40;99.90;;;;;;5105742;28;20658;-70
2023/10/25 06:07:21;;;;;;;1.33;1.25;;;1.30;99.90;;;;;;5108644;28;20203;-70
2023/10/25 06:09:46;;;;;;;1.27;1.17;;;1.20;99.90;;;;;;5109067;28;20199;-70
2023/10/25 06:12:13;;;;;;;0.93;0.93;;;1.20;99.90;;;;;;5111515;28;20252;-70
2023/10/25 06:14:38;;;;;;;1.20;1.17;;;1.20;99.90;;;;;;5112697;28;20207;-71
2023/10/25 06:17:04;;;;;;;0.80;0.80;;;1.10;99.90;;;;;;5094385;28;20218;-71
2023/10/25 06:19:30;;;;;;;0.60;0.60;;;1.10;99.90;;;;;;5112524;28;20207;-70
2023/10/25 06:21:55;;;;;;;0.80;0.80;;;1.00;99.90;;;;;;5112527;28;20194;-71
2023/10/25 06:24:21;;;;;;;0.50;0.50;;;1.00;99.90;;;;;;5112250;28;20275;-71
2023/10/25 06:26:47;;;;;;;0.80;0.80;;;1.00;99.90;;;;;;5112652;28;20202;-72
2023/10/25 06:29:13;;;;;;;0.95;0.95;;;1.00;99.90;;;;;;5094288;28;20199;-70
2023/10/25 06:31:38;;;;;;;0.80;0.80;;;1.00;99.90;;;;;;5112143;28;20199;-71
2023/10/25 06:34:04;;;;;;;0.60;0.60;;;1.00;99.90;;;;;;5093943;28;20230;-71
2023/10/25 06:36:34;;;;;;;0.70;0.70;;;1.10;99.90;;;;;;5111957;28;20203;-71
2023/10/25 06:39:04;;;;;;;0.47;0.47;;;1.10;99.90;;;;;;5093608;28;20295;-71
2023/10/25 06:41:31;;;;;;;0.70;0.70;;;1.00;99.90;;;;;;5111973;28;20562;-71
2023/10/25 06:43:57;;;;;;;0.88;0.85;;;1.10;99.90;;;;;;5112117;28;20187;-71
2023/10/25 06:46:23;;;;;;;1.25;1.20;;;1.10;99.90;;;;;;5112050;28;20693;-71
2023/10/25 06:48:49;;;;;;;0.70;0.70;;;1.10;99.90;;;;;;5112312;28;20191;-71
2023/10/25 06:51:15;;;;;;;0.77;0.77;;;1.00;99.90;;;;;;5093968;28;20252;-71
2023/10/25 06:53:42;;;;;;;0.60;0.60;;;1.10;99.90;;;;;;5112052;28;20551;-71
2023/10/25 06:56:08;;;;;;;0.90;0.90;;;1.10;99.90;;;;;;5105103;28;20200;-71
2023/10/25 06:58:34;;;;;;;0.90;0.90;;;1.10;99.90;;;;;;5073369;28;20681;-71
2023/10/25 07:01:02;;;;;;;0.80;0.80;;;1.10;99.90;;;;;;5091502;28;20669;-71
2023/10/25 07:03:34;;;;;;;0.70;0.70;;;1.10;99.90;;;;;;5096737;28;20196;-71
2023/10/25 07:06:01;;;;;;;0.63;0.63;;;1.20;99.90;;;;;;5111950;28;20206;-71
2023/10/25 07:08:27;;;;;;;0.70;0.70;;;1.20;99.90;;;;;;5111606;28;20202;-71
2023/10/25 07:10:54;;;;;;;0.70;0.70;;;1.20;99.90;;;;;;5111492;28;20188;-71
2023/10/25 07:13:24;;;;;;;0.60;0.60;;;1.20;99.90;;;;;;5111442;28;20191;-70
2023/10/25 07:15:51;;;;;;;0.70;0.70;;;1.20;99.90;;;;;;5111438;28;20206;-72
2023/10/25 07:18:16;;;;;;;0.85;0.85;;;1.30;99.90;;;;;;5111654;28;20202;-71
2023/10/25 07:20:42;;;;;;;0.60;0.60;;;1.30;99.90;;;;;;5111356;28;20548;-71
2023/10/25 07:23:08;;;;;;;0.60;0.60;;;1.30;99.90;;;;;;5092450;28;20282;-71
2023/10/25 07:25:34;;;;;;;0.98;0.98;;;1.30;99.90;;;;;;5111691;28;20274;-67
2023/10/25 07:28:00;;;;;;;0.88;0.88;;;1.30;99.90;;;;;;5111285;28;20658;-67
2023/10/25 07:30:27;;;;;;;0.80;0.80;;;1.40;99.90;;;;;;5111204;28;20194;-68
2023/10/25 07:32:52;;;;;;;1.45;1.15;;;1.40;99.90;;;;;;5111130;28;20662;-67
2023/10/25 07:35:18;;;;;;;0.80;0.80;;;1.40;99.90;;;;;;5111201;28;20272;-67
2023/10/25 07:37:43;;;;;;;0.70;0.70;;;1.50;99.90;;;;;;5111274;28;20188;-67
2023/10/25 07:40:10;;;;;;;0.70;0.70;;;1.40;99.90;;;;;;5111334;28;20202;-72
2023/10/25 07:42:35;;;;;;;0.70;0.70;;;1.40;99.90;;;;;;5110707;28;20200;-68
2023/10/25 07:45:01;;;;;;;1.27;1.23;;;1.40;99.90;;;;;;5111042;28;20673;-70
2023/10/25 07:47:27;;;;;;;0.68;0.68;;;1.30;99.90;;;;;;5111049;28;20199;-68
2023/10/25 07:49:54;;;;;;;4.32;1.23;;;1.40;99.90;;;;;;5110885;28;20702;-69
2023/10/25 07:52:21;;;;;;;0.65;0.65;;;1.40;99.90;;;;;;5085720;28;20299;-69
2023/10/25 07:54:47;;;;;;;1.58;0.98;;;1.50;99.90;;;;;;5066657;28;20280;-68
2023/10/25 07:57:12;;;;;;;0.80;0.77;;;1.60;99.90;;;;;;5050271;28;20732;-68
2023/10/25 07:59:38;;;;;;;0.70;0.70;;;1.70;99.90;;;;;;5050242;28;20208;-67
2023/10/25 08:02:07;;;;;;;0.70;0.70;;;1.90;99.90;;;;;;5050355;28;20566;-68
2023/10/25 08:04:33;;;;;;;0.60;0.60;;;1.90;99.90;;;;;;5064260;28;20208;-70
2023/10/25 08:06:59;;;;;;;0.63;0.63;;;1.90;99.90;;;;;;5069830;28;20759;-68
2023/10/25 08:09:25;;;;;;;1.50;1.40;;;1.90;99.90;;;;;;5069675;28;20201;-69
2023/10/25 08:11:52;;;;;;;0.98;0.98;;;2.00;99.90;;;;;;5070014;28;20267;-68
2023/10/25 08:14:18;;;;;;;0.70;0.70;;;2.00;99.90;;;;;;5069691;28;20239;-69
2023/10/25 08:16:44;;;;;;;0.77;0.77;;;1.90;99.90;;;;;;5069600;28;20331;-71
2023/10/25 08:19:10;;;;;;;2.08;1.85;;;1.90;99.90;;;;;;5069745;28;20726;-71
2023/10/25 08:21:36;;;;;;;1.77;1.63;;;2.00;99.90;;;;;;5069593;28;20193;-71
2023/10/25 08:24:05;;;;;;;1.45;1.35;;;2.00;99.90;;;;;;5062139;28;20205;-71
2023/10/25 08:26:35;;;;;;;0.60;0.60;;;2.00;99.90;;;;;;5049306;28;20197;-70
2023/10/25 08:29:01;;;;;;;0.70;0.70;;;2.10;99.90;;;;;;5049140;28;20190;-71
2023/10/25 08:31:27;;;;;;;0.70;0.70;;;2.20;99.90;;;;;;5068917;28;20215;-71
2023/10/25 08:33:53;;;;;;;0.70;0.70;;;2.20;99.90;;;;;;5069527;28;20199;-71
2023/10/25 08:36:19;;;;;;;0.60;0.60;;;2.30;99.90;;;;;;5069215;28;20208;-71
2023/10/25 08:38:44;;;;;;;0.57;0.57;;;2.30;99.90;;;;;;5087549;28;20207;-72
2023/10/25 08:41:10;;;;;;;0.60;0.60;;;2.30;99.90;;;;;;5089854;28;20189;-73
2023/10/25 08:43:38;;;;;;;0.60;0.60;;;2.30;99.90;;;;;;5089745;28;21005;-72
2023/10/25 08:46:05;;;;;;;0.60;0.60;;;2.30;99.90;;;;;;5090300;28;20184;-73
2023/10/25 08:48:32;;;;;;;0.55;0.55;;;2.40;99.90;;;;;;5077880;28;20205;-72
2023/10/25 08:51:01;;;;;;;0.50;0.50;;;2.50;99.90;;;;;;5049459;28;20234;-72
2023/10/25 08:53:28;;;;;;;0.65;0.65;;;2.50;99.90;;;;;;5031796;28;20208;-72
2023/10/25 08:55:56;;;;;;;0.60;0.60;;;2.50;99.90;;;;;;5069393;28;20219;-71
2023/10/25 08:58:24;;;;;;;0.70;0.70;;;2.60;99.90;;;;;;5068949;28;20660;-71
2023/10/25 09:00:52;;;;;;;0.70;0.70;;;2.60;99.90;;;;;;5069395;28;20220;-71
2023/10/25 09:03:33;;;;;;;0.60;0.60;;;2.70;99.90;;;;;;5073029;28;20871;-72
2023/10/25 09:06:06;;;;;;;0.80;0.80;;;2.70;99.90;;;;;;5070950;28;20195;-71
2023/10/25 09:08:33;;;;;;;0.70;0.70;;;2.70;99.90;;;;;;5070920;28;20671;-71
2023/10/25 09:11:01;;;;;;;0.98;0.95;;;2.70;99.90;;;;;;5089070;28;20211;-71
2023/10/25 09:13:28;;;;;;;0.52;0.52;;;2.70;99.90;;;;;;5088973;28;20193;-72
2023/10/25 09:16:04;;;;;;;0.57;0.57;;;2.60;99.90;;;;;;5070635;28;20212;-71
2023/10/25 09:18:32;;;;;;;0.60;0.60;;;2.60;99.90;;;;;;5088659;28;20203;-71
2023/10/25 09:21:00;;;;;;;0.70;0.70;;;2.60;99.90;;;;;;5088926;28;20200;-72
2023/10/25 09:23:28;;;;;;;0.50;0.50;;;2.60;99.90;;;;;;5088806;28;20188;-71
2023/10/25 09:25:54;;;;;;;0.70;0.70;;;2.60;99.90;;;;;;5088837;28;20226;-70
2023/10/25 09:28:28;;;;;;;0.63;0.63;;;2.60;99.90;;;;;;5088945;28;20722;-69
2023/10/25 09:30:55;;;;;;;0.60;0.60;;;2.70;99.90;;;;;;5088908;28;20294;-69
2023/10/25 09:33:22;;;;;;;0.50;0.50;;;2.70;99.90;;;;;;5092857;28;20562;-70
2023/10/25 09:35:48;;;;;;;0.60;0.60;;;2.70;99.90;;;;;;5109023;28;20294;-68
2023/10/25 09:38:14;;;;;;;0.60;0.60;;;2.70;99.90;;;;;;5108461;28;20198;-68
2023/10/25 09:40:41;;;;;;;0.70;0.70;;;2.70;99.90;;;;;;5068578;28;20196;-68
2023/10/25 09:43:19;;;;;;;0.70;0.70;;;2.70;99.90;;;;;;5068512;28;20197;-70
2023/10/25 09:45:53;;;;;;;0.68;0.68;;;2.80;99.90;;;;;;5068523;28;20622;-72
2023/10/25 09:48:20;;;;;;;0.60;0.60;;;2.80;99.90;;;;;;5072681;28;20204;-72
2023/10/25 09:51:12;;;;;;;0.60;0.60;;;2.80;99.90;;;;;;5072567;28;20208;-72
2023/10/25 09:53:49;;;;;;;0.70;0.70;;;2.80;99.90;;;;;;5072279;28;20258;-72
2023/10/25 09:56:16;;;;;;;0.60;0.60;;;2.80;99.90;;;;;;5072422;28;20216;-72
2023/10/25 09:58:44;;;;;;;0.60;0.60;;;2.80;99.90;;;;;;5054551;28;20204;-72
2023/10/25 10:01:10;;;;;;;0.60;0.60;;;2.80;99.90;;;;;;5072385;28;20223;-72
2023/10/25 10:03:54;;;;;;;0.50;0.50;;;2.90;99.90;;;;;;5078474;28;20252;-72
2023/10/25 10:06:29;;;;;;;0.70;0.70;;;2.90;99.90;;;;;;5092490;28;20215;-72
2023/10/25 10:09:26;;;;;;;0.70;0.70;;;2.90;99.90;;;;;;5092608;28;20238;-71
2023/10/25 10:11:59;;;;;;;0.70;0.70;;;2.90;99.90;;;;;;5092610;28;20199;-72
2023/10/25 10:14:32;;;;;;;0.50;0.50;;;2.90;99.90;;;;;;5092363;28;20224;-72
2023/10/25 10:17:05;;;;;;;0.60;0.60;;;3.00;99.90;;;;;;5080994;28;20217;-72
2023/10/25 10:19:32;;;;;;;0.60;0.60;;;3.00;99.90;;;;;;5071787;28;20612;-72
2023/10/25 10:22:13;;;;;;;0.68;0.68;;;3.00;99.90;;;;;;5075198;28;20198;-72
2023/10/25 10:24:56;;;;;;;0.73;0.73;;;3.00;99.90;;;;;;5092357;28;20184;-72
2023/10/25 10:27:40;;;;;;;0.60;0.60;;;3.00;99.90;;;;;;5092698;28;20655;-71
2023/10/25 10:30:34;;;;;;;0.70;0.70;;;3.10;99.90;;;;;;5082106;28;20682;-71
2023/10/25 10:33:02;;;;;;;0.77;0.77;;;3.10;99.90;;;;;;5112517;28;20196;-72
2023/10/25 10:35:28;;;;;;;0.70;0.70;;;3.20;99.90;;;;;;5093676;28;20191;-71
2023/10/25 10:37:57;;;;;;;0.50;0.50;;;3.20;99.90;;;;;;5112428;28;20191;-72
2023/10/25 10:40:23;;;;;;;0.60;0.60;;;3.30;99.90;;;;;;5110946;28;20650;-72
2023/10/25 10:42:48;;;;;;;0.60;0.60;;;3.40;99.90;;;;;;5071529;28;20209;-72
2023/10/25 10:45:16;;;;;;;0.80;0.80;;;3.40;99.90;;;;;;5071741;28;20197;-72
2023/10/25 10:47:43;;;;;;;0.60;0.60;;;3.40;99.90;;;;;;5071432;28;20204;-72
2023/10/25 10:50:10;;;;;;;0.60;0.60;;;3.40;99.90;;;;;;5071700;28;20201;-72
2023/10/25 10:52:37;;;;;;;0.60;0.60;;;3.40;99.90;;;;;;5071122;28;20410;-72
2023/10/25 10:55:04;;;;;;;0.60;0.60;;;3.40;99.90;;;;;;5071757;28;20239;-70
2023/10/25 10:57:31;;;;;;;0.85;0.68;;;3.40;99.90;;;;;;5052257;28;20744;-68
2023/10/25 10:59:56;;;;;;;0.70;0.70;;;3.50;99.90;;;;;;5071055;28;20616;-68
2023/10/25 11:02:22;;;;;;;0.70;0.70;;;3.60;99.90;;;;;;5071249;28;20318;-68
2023/10/25 11:04:47;;;;;;;0.70;0.70;;;3.60;99.90;;;;;;5087682;28;20207;-69
2023/10/25 11:07:13;;;;;;;0.63;0.63;;;3.70;99.90;;;;;;5091349;28;20529;-68
2023/10/25 11:09:39;;;;;;;0.57;0.57;;;3.70;99.90;;;;;;5073161;28;20235;-70
2023/10/25 11:12:10;;;;;;;0.50;0.50;;;3.80;99.90;;;;;;5089512;28;20196;-70
2023/10/25 11:14:43;;;;;;;3.00;2.15;;;3.80;99.90;;;;;;5070261;28;20231;-68
2023/10/25 11:17:09;;;;;;;0.57;0.57;;;3.80;99.90;;;;;;5070809;28;20215;-69
2023/10/25 11:19:35;;;;;;;0.47;0.47;;;3.80;99.90;;;;;;5066731;28;20196;-68
2023/10/25 11:22:01;;;;;;;0.50;0.50;;;3.80;99.90;;;;;;5091179;28;20196;-68
2023/10/25 11:24:27;;;;;;;1.00;1.00;;;3.80;99.90;;;;;;5090861;28;20194;-69
2023/10/25 11:26:53;;;;;;;0.45;0.45;;;3.80;99.90;;;;;;5085929;28;20216;-72
2023/10/25 11:29:20;;;;;;;0.70;0.70;;;3.80;99.90;;;;;;5093187;28;20295;-70
2023/10/25 11:31:49;;;;;;;0.60;0.60;;;3.80;99.90;;;;;;5111172;28;20733;-69
2023/10/25 11:34:19;;;;;;;0.70;0.70;;;3.80;99.90;;;;;;5111139;28;20557;-69
2023/10/25 11:36:46;;;;;;;0.60;0.60;;;3.80;99.90;;;;;;5107905;28;20260;-68
2023/10/25 11:39:14;;;;;;;0.60;0.60;;;3.70;99.90;;;;;;5070565;28;20203;-67
2023/10/25 11:41:44;;;;;;;0.65;0.65;;;3.60;99.90;;;;;;5070245;28;20201;-70
2023/10/25 11:44:10;;;;;;;0.60;0.60;;;3.60;99.90;;;;;;5070410;28;20231;-69
2023/10/25 11:46:37;;;;;;;0.50;0.50;;;3.70;99.90;;;;;;5070136;28;20197;-70
2023/10/25 11:49:04;;;;;;;0.70;0.70;;;3.70;99.90;;;;;;5070308;28;20193;-69
2023/10/25 11:51:31;;;;;;;0.63;0.63;;;3.70;99.90;;;;;;5069978;28;20852;-68
2023/10/25 11:53:57;;;;;;;0.70;0.70;;;3.80;99.90;;;;;;5069676;28;20259;-68
2023/10/25 11:56:24;;;;;;;0.68;0.68;;;3.80;99.90;;;;;;5069741;28;20617;-69
2023/10/25 11:58:50;;;;;;;0.70;0.70;;;3.80;99.90;;;;;;5051881;28;20250;-69
2023/10/25 12:01:16;;;;;;;0.50;0.50;;;3.80;99.90;;;;;;5070157;28;20285;-68
2023/10/25 12:03:42;;;;;;;0.50;0.50;;;3.70;99.90;;;;;;5077165;28;20658;-69
2023/10/25 12:06:08;;;;;;;0.57;0.57;;;3.70;99.90;;;;;;5090313;28;20567;-68
2023/10/25 12:08:34;;;;;;;0.70;0.70;;;3.70;99.90;;;;;;5086215;28;20224;-68
2023/10/25 12:11:03;;;;;;;0.60;0.60;;;3.70;99.90;;;;;;5051767;28;20232;-67
2023/10/25 12:13:28;;;;;;;0.50;0.50;;;3.70;99.90;;;;;;5051744;28;20556;-68
2023/10/25 12:15:56;;;;;;;0.50;0.50;;;3.70;99.90;;;;;;5066501;28;20203;-68
2023/10/25 12:18:22;;;;;;;0.70;0.70;;;3.70;99.90;;;;;;5089869;28;20229;-70
2023/10/25 12:20:47;;;;;;;0.50;0.50;;;3.80;99.90;;;;;;5090095;28;20223;-67
2023/10/25 12:23:13;;;;;;;0.60;0.60;;;3.80;99.90;;;;;;5090094;28;20599;-69
2023/10/25 12:25:39;;;;;;;0.55;0.55;;;3.80;99.90;;;;;;5090006;28;20245;-68
2023/10/25 12:28:07;;;;;;;0.60;0.60;;;3.80;99.90;;;;;;5089972;28;20275;-68
2023/10/25 12:30:33;;;;;;;0.60;0.60;;;3.70;99.90;;;;;;5089842;28;20188;-70
2023/10/25 12:32:59;;;;;;;0.60;0.60;;;3.70;99.90;;;;;;5089548;28;20199;-68
2023/10/25 12:35:24;;;;;;;0.60;0.60;;;3.70;99.90;;;;;;5089690;28;20231;-67
2023/10/25 12:37:50;;;;;;;1.25;1.10;;;3.70;99.90;;;;;;5089804;28;20655;-68
2023/10/25 12:40:16;;;;;;;0.60;0.60;;;3.80;99.90;;;;;;5089958;28;20228;-70
2023/10/25 12:42:44;;;;;;;0.57;0.57;;;3.80;99.90;;;;;;5089746;28;20207;-68
2023/10/25 12:45:10;;;;;;;0.70;0.70;;;3.70;99.90;;;;;;5089960;28;20196;-70
2023/10/25 12:47:35;;;;;;;0.70;0.70;;;3.70;99.90;;;;;;5089836;28;20246;-67
2023/10/25 12:50:03;;;;;;;0.68;0.68;;;3.80;99.90;;;;;;5089656;28;20512;-68
2023/10/25 12:52:29;;;;;;;0.60;0.60;;;3.70;99.90;;;;;;5071376;28;20199;-67
2023/10/25 12:54:55;;;;;;;0.65;0.65;;;3.70;99.90;;;;;;5089554;28;20356;-72
2023/10/25 12:57:20;;;;;;;0.68;0.68;;;3.70;99.90;;;;;;5071031;28;20295;-71